DLH5KA EDDF-EDDN
Flight info
| Callsign | DLH5KA |
|---|---|
| Flight time | N/A |
| Altitude | 19000 |
| Route | CINDY8S/18 CINDY Z74 HAREM T104 ELMOX DCT LETKU LETKU1V |
| Aircraft | A321/M-SDE3FGHIRWY/LB1 |
Departure
| Time | 2026-05-04 20:24 |
|---|---|
| Airport | Frankfurt Main Airport (EDDF) |
Arrival
| Time | N/A |
|---|---|
| Airport | Nuremberg Airport (EDDN) |
| Time | Latitude | Longitude | Altitude | Speed | Heading |
|---|---|---|---|---|---|
| 2026-05-04 19:35 | 50.04873 | 8.59050 | 335 ft | 0 kts | 339° |
| 2026-05-04 19:57 | 50.04865 | 8.59055 | 368 ft | 2 kts | 339° |
| 2026-05-04 19:57 | 50.04850 | 8.59064 | 368 ft | 2 kts | 339° |
| 2026-05-04 19:58 | 50.04835 | 8.59073 | 370 ft | 2 kts | 340° |
| 2026-05-04 19:58 | 50.04820 | 8.59081 | 369 ft | 2 kts | 340° |
| 2026-05-04 19:58 | 50.04807 | 8.59088 | 369 ft | 1 kts | 340° |
| 2026-05-04 19:58 | 50.04807 | 8.59089 | 368 ft | 0 kts | 340° |
| 2026-05-04 20:08 | 50.04810 | 8.59087 | 361 ft | 2 kts | 342° |
| 2026-05-04 20:09 | 50.04823 | 8.59104 | 395 ft | 3 kts | 54° |
| 2026-05-04 20:09 | 50.04827 | 8.59145 | 370 ft | 5 kts | 82° |
| 2026-05-04 20:09 | 50.04834 | 8.59201 | 373 ft | 6 kts | 77° |
| 2026-05-04 20:09 | 50.04847 | 8.59269 | 370 ft | 8 kts | 71° |
| 2026-05-04 20:10 | 50.04867 | 8.59358 | 370 ft | 9 kts | 77° |
| 2026-05-04 20:10 | 50.04856 | 8.59452 | 371 ft | 8 kts | 119° |
| 2026-05-04 20:10 | 50.04841 | 8.59480 | 371 ft | 2 kts | 136° |
| 2026-05-04 20:10 | 50.04840 | 8.59481 | 371 ft | 0 kts | 136° |
| 2026-05-04 20:11 | 50.04838 | 8.59483 | 371 ft | 1 kts | 136° |
| 2026-05-04 20:11 | 50.04835 | 8.59488 | 372 ft | 1 kts | 136° |
| 2026-05-04 20:12 | 50.04806 | 8.59528 | 371 ft | 7 kts | 139° |
| 2026-05-04 20:12 | 50.04757 | 8.59581 | 373 ft | 9 kts | 154° |
| 2026-05-04 20:12 | 50.04684 | 8.59612 | 374 ft | 14 kts | 171° |
| 2026-05-04 20:12 | 50.04565 | 8.59622 | 375 ft | 20 kts | 178° |
| 2026-05-04 20:13 | 50.04404 | 8.59631 | 376 ft | 26 kts | 178° |
| 2026-05-04 20:13 | 50.04207 | 8.59626 | 375 ft | 29 kts | 190° |
| 2026-05-04 20:13 | 50.04018 | 8.59522 | 374 ft | 29 kts | 209° |
| 2026-05-04 20:13 | 50.03874 | 8.59294 | 367 ft | 31 kts | 242° |
| 2026-05-04 20:14 | 50.03805 | 8.59012 | 368 ft | 28 kts | 250° |
| 2026-05-04 20:14 | 50.03737 | 8.58720 | 361 ft | 29 kts | 250° |
| 2026-05-04 20:14 | 50.03665 | 8.58419 | 363 ft | 30 kts | 250° |
| 2026-05-04 20:14 | 50.03594 | 8.58124 | 362 ft | 29 kts | 250° |
| 2026-05-04 20:15 | 50.03525 | 8.57834 | 358 ft | 29 kts | 250° |
| 2026-05-04 20:15 | 50.03454 | 8.57536 | 357 ft | 29 kts | 250° |
| 2026-05-04 20:15 | 50.03407 | 8.57338 | 355 ft | 30 kts | 249° |
| 2026-05-04 20:15 | 50.03310 | 8.56936 | 355 ft | 30 kts | 249° |
| 2026-05-04 20:16 | 50.03238 | 8.56629 | 350 ft | 31 kts | 250° |
| 2026-05-04 20:16 | 50.03164 | 8.56322 | 350 ft | 30 kts | 250° |
| 2026-05-04 20:16 | 50.03090 | 8.56011 | 350 ft | 31 kts | 250° |
| 2026-05-04 20:16 | 50.03017 | 8.55703 | 346 ft | 31 kts | 249° |
| 2026-05-04 20:17 | 50.02943 | 8.55395 | 351 ft | 30 kts | 249° |
| 2026-05-04 20:17 | 50.02870 | 8.55091 | 350 ft | 30 kts | 249° |
| 2026-05-04 20:17 | 50.02796 | 8.54786 | 338 ft | 30 kts | 250° |
| 2026-05-04 20:17 | 50.02747 | 8.54579 | 338 ft | 30 kts | 250° |
| 2026-05-04 20:18 | 50.02659 | 8.54174 | 337 ft | 30 kts | 253° |
| 2026-05-04 20:18 | 50.02587 | 8.53860 | 334 ft | 31 kts | 249° |
| 2026-05-04 20:18 | 50.02537 | 8.53654 | 334 ft | 28 kts | 249° |
| 2026-05-04 20:18 | 50.02468 | 8.53368 | 333 ft | 14 kts | 250° |
| 2026-05-04 20:19 | 50.02448 | 8.53287 | 334 ft | 0 kts | 250° |
| 2026-05-04 20:21 | 50.02448 | 8.53283 | 334 ft | 1 kts | 250° |
| 2026-05-04 20:21 | 50.02421 | 8.53173 | 333 ft | 9 kts | 250° |
| 2026-05-04 20:22 | 50.02397 | 8.53072 | 331 ft | 11 kts | 249° |
| 2026-05-04 20:22 | 50.02369 | 8.52955 | 335 ft | 12 kts | 249° |
| 2026-05-04 20:22 | 50.02338 | 8.52829 | 332 ft | 13 kts | 248° |
| 2026-05-04 20:22 | 50.02306 | 8.52694 | 334 ft | 13 kts | 250° |
| 2026-05-04 20:23 | 50.02273 | 8.52612 | 334 ft | 7 kts | 206° |
| 2026-05-04 20:23 | 50.02221 | 8.52605 | 335 ft | 9 kts | 180° |
| 2026-05-04 20:23 | 50.02026 | 8.52607 | 332 ft | 62 kts | 179° |
| 2026-05-04 20:23 | 50.01356 | 8.52615 | 329 ft | 128 kts | 179° |
| 2026-05-04 20:24 | 50.00276 | 8.52626 | 337 ft | 179 kts | 179° |
| 2026-05-04 20:24 | 49.99009 | 8.52650 | 910 ft | 181 kts | 181° |
| 2026-05-04 20:24 | 49.97752 | 8.52670 | 1584 ft | 183 kts | 177° |
| 2026-05-04 20:24 | 49.96497 | 8.53311 | 1881 ft | 202 kts | 143° |
| 2026-05-04 20:25 | 49.96447 | 8.53369 | 1889 ft | 203 kts | 142° |